sensor_id;sensor_type;location;lat;lon;timestamp;P1;durP1;ratioP1;P2;durP2;ratioP2
80557;SDS011;69901;43.524;-5.636;2023-05-03T06:22:10;7.07;;;1.70;;
80557;SDS011;69901;43.524;-5.636;2023-05-03T06:24:35;7.13;;;2.30;;
80557;SDS011;69901;43.524;-5.636;2023-05-03T06:27:00;7.17;;;2.30;;
80557;SDS011;69901;43.524;-5.636;2023-05-03T06:29:26;6.57;;;1.73;;
80557;SDS011;69901;43.524;-5.636;2023-05-03T06:31:53;7.95;;;2.10;;
80557;SDS011;69901;43.524;-5.636;2023-05-03T06:34:18;6.10;;;1.83;;
80557;SDS011;69901;43.524;-5.636;2023-05-03T06:36:45;8.80;;;1.92;;
80557;SDS011;69901;43.524;-5.636;2023-05-03T06:39:11;7.47;;;2.10;;
80557;SDS011;69901;43.524;-5.636;2023-05-03T06:41:36;7.73;;;2.53;;
80557;SDS011;69901;43.524;-5.636;2023-05-03T06:44:02;5.53;;;2.17;;
80557;SDS011;69901;43.524;-5.636;2023-05-03T06:46:31;6.55;;;1.92;;
80557;SDS011;69901;43.524;-5.636;2023-05-03T06:48:57;5.57;;;1.90;;
80557;SDS011;69901;43.524;-5.636;2023-05-03T06:51:23;7.88;;;2.10;;
80557;SDS011;69901;43.524;-5.636;2023-05-03T06:53:56;8.18;;;2.05;;
80557;SDS011;69901;43.524;-5.636;2023-05-03T06:56:24;7.03;;;1.87;;
80557;SDS011;69901;43.524;-5.636;2023-05-03T06:58:50;7.05;;;1.95;;
80557;SDS011;69901;43.524;-5.636;2023-05-03T07:01:15;7.47;;;2.00;;
80557;SDS011;69901;43.524;-5.636;2023-05-03T07:03:43;6.65;;;1.92;;
80557;SDS011;69901;43.524;-5.636;2023-05-03T07:06:08;6.15;;;2.50;;
80557;SDS011;69901;43.524;-5.636;2023-05-03T07:08:34;6.87;;;2.23;;
80557;SDS011;69901;43.524;-5.636;2023-05-03T07:11:00;7.18;;;2.35;;
80557;SDS011;69901;43.524;-5.636;2023-05-03T07:13:25;7.40;;;2.87;;
80557;SDS011;69901;43.524;-5.636;2023-05-03T07:15:51;7.13;;;2.43;;
80557;SDS011;69901;43.524;-5.636;2023-05-03T07:18:17;9.63;;;3.05;;
80557;SDS011;69901;43.524;-5.636;2023-05-03T07:20:42;9.07;;;2.50;;
80557;SDS011;69901;43.524;-5.636;2023-05-03T07:23:07;9.07;;;2.30;;
80557;SDS011;69901;43.524;-5.636;2023-05-03T07:25:33;7.88;;;2.60;;
80557;SDS011;69901;43.524;-5.636;2023-05-03T07:28:06;7.00;;;2.40;;
80557;SDS011;69901;43.524;-5.636;2023-05-03T07:30:32;7.53;;;2.60;;
80557;SDS011;69901;43.524;-5.636;2023-05-03T07:32:57;6.80;;;2.50;;
80557;SDS011;69901;43.524;-5.636;2023-05-03T07:35:23;6.67;;;2.70;;
80557;SDS011;69901;43.524;-5.636;2023-05-03T07:37:50;7.82;;;2.80;;
80557;SDS011;69901;43.524;-5.636;2023-05-03T07:40:16;8.20;;;2.63;;
80557;SDS011;69901;43.524;-5.636;2023-05-03T07:42:41;8.63;;;3.10;;
80557;SDS011;69901;43.524;-5.636;2023-05-03T07:45:07;8.93;;;2.40;;
80557;SDS011;69901;43.524;-5.636;2023-05-03T07:47:33;6.72;;;2.33;;
80557;SDS011;69901;43.524;-5.636;2023-05-03T07:50:01;8.15;;;3.00;;
80557;SDS011;69901;43.524;-5.636;2023-05-03T07:52:29;9.68;;;2.83;;
80557;SDS011;69901;43.524;-5.636;2023-05-03T07:54:54;8.10;;;3.07;;
80557;SDS011;69901;43.524;-5.636;2023-05-03T07:57:20;10.53;;;3.33;;
80557;SDS011;69901;43.524;-5.636;2023-05-03T07:59:47;8.38;;;2.70;;
80557;SDS011;69901;43.524;-5.636;2023-05-03T08:02:13;7.93;;;2.85;;
80557;SDS011;69901;43.524;-5.636;2023-05-03T08:04:38;9.47;;;3.10;;
80557;SDS011;69901;43.524;-5.636;2023-05-03T08:07:04;8.40;;;2.47;;
80557;SDS011;69901;43.524;-5.636;2023-05-03T08:09:29;11.13;;;2.60;;
80557;SDS011;69901;43.524;-5.636;2023-05-03T08:11:55;8.50;;;2.63;;
80557;SDS011;69901;43.524;-5.636;2023-05-03T08:14:21;8.33;;;2.67;;
80557;SDS011;69901;43.524;-5.636;2023-05-03T08:16:48;9.03;;;2.63;;
80557;SDS011;69901;43.524;-5.636;2023-05-03T08:19:13;7.53;;;2.60;;
80557;SDS011;69901;43.524;-5.636;2023-05-03T08:21:39;8.60;;;2.53;;
80557;SDS011;69901;43.524;-5.636;2023-05-03T08:24:04;11.23;;;2.60;;
80557;SDS011;69901;43.524;-5.636;2023-05-03T08:26:32;9.57;;;2.88;;
80557;SDS011;69901;43.524;-5.636;2023-05-03T08:28:58;8.57;;;2.20;;
80557;SDS011;69901;43.524;-5.636;2023-05-03T08:31:24;7.65;;;2.50;;
80557;SDS011;69901;43.524;-5.636;2023-05-03T08:33:51;8.32;;;2.60;;
80557;SDS011;69901;43.524;-5.636;2023-05-03T08:36:16;8.33;;;2.47;;
80557;SDS011;69901;43.524;-5.636;2023-05-03T08:38:42;9.43;;;2.60;;
80557;SDS011;69901;43.524;-5.636;2023-05-03T08:41:11;7.90;;;2.80;;
80557;SDS011;69901;43.524;-5.636;2023-05-03T08:43:43;10.10;;;2.58;;
80557;SDS011;69901;43.524;-5.636;2023-05-03T08:46:10;11.45;;;2.72;;
80557;SDS011;69901;43.524;-5.636;2023-05-03T08:48:50;8.07;;;2.67;;
80557;SDS011;69901;43.524;-5.636;2023-05-03T08:51:18;11.07;;;2.57;;
80557;SDS011;69901;43.524;-5.636;2023-05-03T08:53:44;10.10;;;2.30;;
80557;SDS011;69901;43.524;-5.636;2023-05-03T08:56:11;10.43;;;2.72;;
80557;SDS011;69901;43.524;-5.636;2023-05-03T08:58:43;7.40;;;2.13;;
80557;SDS011;69901;43.524;-5.636;2023-05-03T09:01:09;9.70;;;2.27;;
80557;SDS011;69901;43.524;-5.636;2023-05-03T09:03:35;9.73;;;2.70;;
80557;SDS011;69901;43.524;-5.636;2023-05-03T09:06:01;11.60;;;2.85;;
80557;SDS011;69901;43.524;-5.636;2023-05-03T09:08:27;10.10;;;3.15;;
80557;SDS011;69901;43.524;-5.636;2023-05-03T09:10:54;11.95;;;2.72;;
80557;SDS011;69901;43.524;-5.636;2023-05-03T09:13:26;9.88;;;2.80;;
80557;SDS011;69901;43.524;-5.636;2023-05-03T09:15:56;10.83;;;2.40;;
80557;SDS011;69901;43.524;-5.636;2023-05-03T09:18:26;10.32;;;2.75;;
80557;SDS011;69901;43.524;-5.636;2023-05-03T09:20:51;16.83;;;2.85;;
80557;SDS011;69901;43.524;-5.636;2023-05-03T09:23:18;8.73;;;2.53;;
80557;SDS011;69901;43.524;-5.636;2023-05-03T09:25:55;9.63;;;2.53;;
80557;SDS011;69901;43.524;-5.636;2023-05-03T09:28:21;11.88;;;2.58;;
80557;SDS011;69901;43.524;-5.636;2023-05-03T09:30:47;10.43;;;2.63;;
80557;SDS011;69901;43.524;-5.636;2023-05-03T09:33:14;10.50;;;2.97;;
80557;SDS011;69901;43.524;-5.636;2023-05-03T09:35:56;10.50;;;2.53;;
80557;SDS011;69901;43.524;-5.636;2023-05-03T09:38:26;9.25;;;3.10;;
80557;SDS011;69901;43.524;-5.636;2023-05-03T09:40:53;10.67;;;2.90;;
80557;SDS011;69901;43.524;-5.636;2023-05-03T09:43:18;11.27;;;3.58;;
80557;SDS011;69901;43.524;-5.636;2023-05-03T09:45:44;13.37;;;3.13;;
80557;SDS011;69901;43.524;-5.636;2023-05-03T09:48:09;12.07;;;3.63;;
80557;SDS011;69901;43.524;-5.636;2023-05-03T09:50:36;10.52;;;3.45;;
80557;SDS011;69901;43.524;-5.636;2023-05-03T09:53:03;10.43;;;3.40;;
80557;SDS011;69901;43.524;-5.636;2023-05-03T09:57:59;9.85;;;3.63;;
80557;SDS011;69901;43.524;-5.636;2023-05-03T10:00:25;10.57;;;2.85;;
80557;SDS011;69901;43.524;-5.636;2023-05-03T10:02:52;12.88;;;4.20;;
80557;SDS011;69901;43.524;-5.636;2023-05-03T10:05:19;22.10;;;7.40;;
80557;SDS011;69901;43.524;-5.636;2023-05-03T10:07:47;20.70;;;6.45;;
80557;SDS011;69901;43.524;-5.636;2023-05-03T10:10:17;18.77;;;7.45;;
80557;SDS011;69901;43.524;-5.636;2023-05-03T10:12:43;19.25;;;7.05;;
80557;SDS011;69901;43.524;-5.636;2023-05-03T10:15:09;31.38;;;10.80;;
80557;SDS011;69901;43.524;-5.636;2023-05-03T10:17:37;33.83;;;9.73;;
80557;SDS011;69901;43.524;-5.636;2023-05-03T10:25:28;17.73;;;6.40;;
80557;SDS011;69901;43.524;-5.636;2023-05-03T10:28:00;22.63;;;7.60;;
80557;SDS011;69901;43.524;-5.636;2023-05-03T10:30:28;17.08;;;6.72;;
80557;SDS011;69901;43.524;-5.636;2023-05-03T10:32:59;16.83;;;6.18;;
80557;SDS011;69901;43.524;-5.636;2023-05-03T10:35:52;16.25;;;5.95;;
80557;SDS011;69901;43.524;-5.636;2023-05-03T10:38:22;16.67;;;5.18;;
80557;SDS011;69901;43.524;-5.636;2023-05-03T10:40:49;13.73;;;5.03;;
80557;SDS011;69901;43.524;-5.636;2023-05-03T10:45:54;14.75;;;4.78;;
80557;SDS011;69901;43.524;-5.636;2023-05-03T10:48:23;16.45;;;4.57;;
80557;SDS011;69901;43.524;-5.636;2023-05-03T10:50:50;13.30;;;4.28;;
80557;SDS011;69901;43.524;-5.636;2023-05-03T10:53:49;15.00;;;4.57;;
80557;SDS011;69901;43.524;-5.636;2023-05-03T10:56:09;14.02;;;4.38;;
80557;SDS011;69901;43.524;-5.636;2023-05-03T10:58:37;17.02;;;4.63;;
80557;SDS011;69901;43.524;-5.636;2023-05-03T11:01:10;11.63;;;4.07;;
80557;SDS011;69901;43.524;-5.636;2023-05-03T11:06:31;13.97;;;3.67;;
80557;SDS011;69901;43.524;-5.636;2023-05-03T11:08:58;13.68;;;4.68;;
80557;SDS011;69901;43.524;-5.636;2023-05-03T11:11:24;15.07;;;4.65;;
80557;SDS011;69901;43.524;-5.636;2023-05-03T11:13:50;11.27;;;4.20;;
80557;SDS011;69901;43.524;-5.636;2023-05-03T11:16:16;13.05;;;3.60;;
80557;SDS011;69901;43.524;-5.636;2023-05-03T11:18:42;14.02;;;4.00;;
80557;SDS011;69901;43.524;-5.636;2023-05-03T11:21:09;12.30;;;4.80;;
80557;SDS011;69901;43.524;-5.636;2023-05-03T11:23:36;13.45;;;5.50;;
80557;SDS011;69901;43.524;-5.636;2023-05-03T11:26:06;13.25;;;4.32;;
80557;SDS011;69901;43.524;-5.636;2023-05-03T11:28:33;16.55;;;6.00;;
80557;SDS011;69901;43.524;-5.636;2023-05-03T11:30:59;24.13;;;7.13;;
80557;SDS011;69901;43.524;-5.636;2023-05-03T11:33:27;23.98;;;8.18;;
80557;SDS011;69901;43.524;-5.636;2023-05-03T11:35:55;23.55;;;7.55;;
80557;SDS011;69901;43.524;-5.636;2023-05-03T11:38:20;26.77;;;8.50;;
80557;SDS011;69901;43.524;-5.636;2023-05-03T11:40:47;21.60;;;7.53;;
80557;SDS011;69901;43.524;-5.636;2023-05-03T11:43:13;25.07;;;10.07;;
80557;SDS011;69901;43.524;-5.636;2023-05-03T11:45:45;29.60;;;10.30;;
80557;SDS011;69901;43.524;-5.636;2023-05-03T11:48:13;24.85;;;10.45;;
80557;SDS011;69901;43.524;-5.636;2023-05-03T11:53:08;24.40;;;10.23;;
80557;SDS011;69901;43.524;-5.636;2023-05-03T11:55:43;26.88;;;10.48;;
80557;SDS011;69901;43.524;-5.636;2023-05-03T11:58:13;28.40;;;9.87;;
80557;SDS011;69901;43.524;-5.636;2023-05-03T12:00:41;24.63;;;9.98;;
80557;SDS011;69901;43.524;-5.636;2023-05-03T12:05:51;19.60;;;7.47;;
80557;SDS011;69901;43.524;-5.636;2023-05-03T12:08:20;13.73;;;6.00;;
80557;SDS011;69901;43.524;-5.636;2023-05-03T12:10:49;17.67;;;7.63;;
80557;SDS011;69901;43.524;-5.636;2023-05-03T12:15:59;17.13;;;7.03;;
80557;SDS011;69901;43.524;-5.636;2023-05-03T12:18:25;14.00;;;6.18;;
80557;SDS011;69901;43.524;-5.636;2023-05-03T12:20:55;17.85;;;6.55;;
80557;SDS011;69901;43.524;-5.636;2023-05-03T12:23:22;15.67;;;5.90;;
80557;SDS011;69901;43.524;-5.636;2023-05-03T12:25:48;15.48;;;5.63;;
80557;SDS011;69901;43.524;-5.636;2023-05-03T12:28:16;14.60;;;4.47;;
80557;SDS011;69901;43.524;-5.636;2023-05-03T12:30:42;11.85;;;4.22;;
80557;SDS011;69901;43.524;-5.636;2023-05-03T12:33:07;13.97;;;4.40;;
80557;SDS011;69901;43.524;-5.636;2023-05-03T12:35:33;14.90;;;5.03;;
80557;SDS011;69901;43.524;-5.636;2023-05-03T12:37:59;14.70;;;4.27;;
80557;SDS011;69901;43.524;-5.636;2023-05-03T12:40:29;13.45;;;4.32;;
80557;SDS011;69901;43.524;-5.636;2023-05-03T12:42:54;15.60;;;4.93;;
80557;SDS011;69901;43.524;-5.636;2023-05-03T12:45:20;17.70;;;4.75;;
80557;SDS011;69901;43.524;-5.636;2023-05-03T12:47:46;13.80;;;4.23;;
80557;SDS011;69901;43.524;-5.636;2023-05-03T12:50:11;13.38;;;4.47;;
80557;SDS011;69901;43.524;-5.636;2023-05-03T12:52:37;16.87;;;4.57;;
80557;SDS011;69901;43.524;-5.636;2023-05-03T12:55:03;13.20;;;4.43;;
80557;SDS011;69901;43.524;-5.636;2023-05-03T12:57:30;18.30;;;4.75;;
80557;SDS011;69901;43.524;-5.636;2023-05-03T12:59:56;15.48;;;4.10;;
80557;SDS011;69901;43.524;-5.636;2023-05-03T13:02:21;14.60;;;3.97;;
80557;SDS011;69901;43.524;-5.636;2023-05-03T13:04:47;12.90;;;3.57;;
80557;SDS011;69901;43.524;-5.636;2023-05-03T13:07:20;13.90;;;3.73;;
80557;SDS011;69901;43.524;-5.636;2023-05-03T13:09:48;15.25;;;4.25;;
80557;SDS011;69901;43.524;-5.636;2023-05-03T13:12:14;13.90;;;4.38;;
80557;SDS011;69901;43.524;-5.636;2023-05-03T13:14:42;15.77;;;4.57;;
80557;SDS011;69901;43.524;-5.636;2023-05-03T13:17:07;13.43;;;4.07;;
80557;SDS011;69901;43.524;-5.636;2023-05-03T13:19:33;14.23;;;3.40;;
80557;SDS011;69901;43.524;-5.636;2023-05-03T13:21:58;12.60;;;3.60;;
80557;SDS011;69901;43.524;-5.636;2023-05-03T13:24:23;12.63;;;3.50;;
80557;SDS011;69901;43.524;-5.636;2023-05-03T13:26:50;14.98;;;3.58;;
80557;SDS011;69901;43.524;-5.636;2023-05-03T13:29:15;15.20;;;3.77;;
80557;SDS011;69901;43.524;-5.636;2023-05-03T13:31:40;9.37;;;3.30;;
80557;SDS011;69901;43.524;-5.636;2023-05-03T13:34:06;14.77;;;4.00;;
80557;SDS011;69901;43.524;-5.636;2023-05-03T13:36:31;11.80;;;3.63;;
80557;SDS011;69901;43.524;-5.636;2023-05-03T13:38:57;14.00;;;3.37;;
80557;SDS011;69901;43.524;-5.636;2023-05-03T13:41:23;10.45;;;3.00;;
80557;SDS011;69901;43.524;-5.636;2023-05-03T13:43:49;9.97;;;3.10;;
80557;SDS011;69901;43.524;-5.636;2023-05-03T13:46:14;10.25;;;3.35;;
80557;SDS011;69901;43.524;-5.636;2023-05-03T13:48:40;14.07;;;3.87;;
80557;SDS011;69901;43.524;-5.636;2023-05-03T13:51:07;12.77;;;3.47;;
80557;SDS011;69901;43.524;-5.636;2023-05-03T13:53:34;11.00;;;3.38;;
80557;SDS011;69901;43.524;-5.636;2023-05-03T13:56:00;10.17;;;2.80;;
80557;SDS011;69901;43.524;-5.636;2023-05-03T13:58:26;8.37;;;2.53;;
80557;SDS011;69901;43.524;-5.636;2023-05-03T14:00:52;11.75;;;3.35;;
80557;SDS011;69901;43.524;-5.636;2023-05-03T14:03:17;8.90;;;2.73;;
80557;SDS011;69901;43.524;-5.636;2023-05-03T14:05:43;11.43;;;3.90;;
80557;SDS011;69901;43.524;-5.636;2023-05-03T14:08:08;10.87;;;3.47;;
80557;SDS011;69901;43.524;-5.636;2023-05-03T14:10:34;12.27;;;4.28;;
80557;SDS011;69901;43.524;-5.636;2023-05-03T14:12:59;11.17;;;3.50;;
80557;SDS011;69901;43.524;-5.636;2023-05-03T14:15:25;9.25;;;3.78;;
80557;SDS011;69901;43.524;-5.636;2023-05-03T14:17:50;11.70;;;4.00;;
80557;SDS011;69901;43.524;-5.636;2023-05-03T14:20:16;10.17;;;3.97;;
80557;SDS011;69901;43.524;-5.636;2023-05-03T14:22:42;11.13;;;3.47;;
80557;SDS011;69901;43.524;-5.636;2023-05-03T14:25:08;10.85;;;3.72;;
80557;SDS011;69901;43.524;-5.636;2023-05-03T14:27:33;9.85;;;3.88;;
80557;SDS011;69901;43.524;-5.636;2023-05-03T14:29:59;9.07;;;3.57;;
80557;SDS011;69901;43.524;-5.636;2023-05-03T14:32:25;11.32;;;3.38;;
80557;SDS011;69901;43.524;-5.636;2023-05-03T14:34:51;9.97;;;3.37;;
80557;SDS011;69901;43.524;-5.636;2023-05-03T14:37:16;9.02;;;3.50;;
80557;SDS011;69901;43.524;-5.636;2023-05-03T14:39:42;9.10;;;3.53;;
80557;SDS011;69901;43.524;-5.636;2023-05-03T14:42:08;9.70;;;4.03;;
80557;SDS011;69901;43.524;-5.636;2023-05-03T14:44:35;11.80;;;4.47;;
80557;SDS011;69901;43.524;-5.636;2023-05-03T14:47:01;13.18;;;5.10;;
80557;SDS011;69901;43.524;-5.636;2023-05-03T14:49:27;12.93;;;4.65;;
80557;SDS011;69901;43.524;-5.636;2023-05-03T14:51:53;11.83;;;4.57;;
80557;SDS011;69901;43.524;-5.636;2023-05-03T14:54:19;11.55;;;4.25;;
80557;SDS011;69901;43.524;-5.636;2023-05-03T14:56:47;12.50;;;4.78;;
80557;SDS011;69901;43.524;-5.636;2023-05-03T14:59:13;12.60;;;4.60;;
80557;SDS011;69901;43.524;-5.636;2023-05-03T15:01:38;12.80;;;4.80;;
80557;SDS011;69901;43.524;-5.636;2023-05-03T15:04:04;11.20;;;4.40;;
80557;SDS011;69901;43.524;-5.636;2023-05-03T15:06:31;10.83;;;3.57;;
80557;SDS011;69901;43.524;-5.636;2023-05-03T15:09:02;10.60;;;4.25;;
80557;SDS011;69901;43.524;-5.636;2023-05-03T15:11:28;11.98;;;4.80;;
80557;SDS011;69901;43.524;-5.636;2023-05-03T15:13:54;8.73;;;3.67;;
80557;SDS011;69901;43.524;-5.636;2023-05-03T15:16:19;10.10;;;3.80;;
80557;SDS011;69901;43.524;-5.636;2023-05-03T15:18:45;8.07;;;3.25;;
80557;SDS011;69901;43.524;-5.636;2023-05-03T15:21:19;11.23;;;4.18;;
80557;SDS011;69901;43.524;-5.636;2023-05-03T15:23:45;9.37;;;3.50;;
80557;SDS011;69901;43.524;-5.636;2023-05-03T15:26:12;9.82;;;3.00;;
80557;SDS011;69901;43.524;-5.636;2023-05-03T15:28:37;8.77;;;2.90;;
80557;SDS011;69901;43.524;-5.636;2023-05-03T15:31:03;9.55;;;2.65;;
80557;SDS011;69901;43.524;-5.636;2023-05-03T15:33:29;9.70;;;2.93;;
80557;SDS011;69901;43.524;-5.636;2023-05-03T15:35:54;11.00;;;3.13;;
80557;SDS011;69901;43.524;-5.636;2023-05-03T15:38:20;9.90;;;3.20;;
80557;SDS011;69901;43.524;-5.636;2023-05-03T15:40:45;9.43;;;2.85;;
80557;SDS011;69901;43.524;-5.636;2023-05-03T15:43:11;10.13;;;3.30;;
80557;SDS011;69901;43.524;-5.636;2023-05-03T15:45:36;8.33;;;2.93;;
80557;SDS011;69901;43.524;-5.636;2023-05-03T15:48:02;8.93;;;2.77;;
80557;SDS011;69901;43.524;-5.636;2023-05-03T15:50:28;9.15;;;3.25;;
80557;SDS011;69901;43.524;-5.636;2023-05-03T15:52:54;8.88;;;3.78;;
80557;SDS011;69901;43.524;-5.636;2023-05-03T15:55:20;10.07;;;3.17;;
80557;SDS011;69901;43.524;-5.636;2023-05-03T15:57:46;8.60;;;3.17;;
80557;SDS011;69901;43.524;-5.636;2023-05-03T16:00:13;8.13;;;2.47;;
80557;SDS011;69901;43.524;-5.636;2023-05-03T16:02:40;10.32;;;2.78;;
80557;SDS011;69901;43.524;-5.636;2023-05-03T16:05:06;8.02;;;2.65;;
80557;SDS011;69901;43.524;-5.636;2023-05-03T16:07:32;8.68;;;3.30;;
80557;SDS011;69901;43.524;-5.636;2023-05-03T16:09:58;8.73;;;2.33;;
80557;SDS011;69901;43.524;-5.636;2023-05-03T16:12:23;9.60;;;3.17;;
80557;SDS011;69901;43.524;-5.636;2023-05-03T16:14:49;8.33;;;3.00;;
80557;SDS011;69901;43.524;-5.636;2023-05-03T16:17:14;8.43;;;3.10;;
80557;SDS011;69901;43.524;-5.636;2023-05-03T16:19:41;8.52;;;2.80;;
80557;SDS011;69901;43.524;-5.636;2023-05-03T16:22:08;8.10;;;2.80;;
80557;SDS011;69901;43.524;-5.636;2023-05-03T16:24:33;7.45;;;2.35;;
80557;SDS011;69901;43.524;-5.636;2023-05-03T16:26:59;8.20;;;2.67;;
80557;SDS011;69901;43.524;-5.636;2023-05-03T16:29:26;7.85;;;2.65;;
80557;SDS011;69901;43.524;-5.636;2023-05-03T16:31:51;8.70;;;2.78;;
80557;SDS011;69901;43.524;-5.636;2023-05-03T16:34:17;7.63;;;2.67;;
80557;SDS011;69901;43.524;-5.636;2023-05-03T16:36:42;10.00;;;2.90;;
80557;SDS011;69901;43.524;-5.636;2023-05-03T16:39:12;7.85;;;2.97;;
80557;SDS011;69901;43.524;-5.636;2023-05-03T16:41:38;8.38;;;2.72;;
80557;SDS011;69901;43.524;-5.636;2023-05-03T16:44:04;9.80;;;2.15;;
80557;SDS011;69901;43.524;-5.636;2023-05-03T16:46:34;7.85;;;2.53;;
80557;SDS011;69901;43.524;-5.636;2023-05-03T16:49:01;8.37;;;2.50;;
80557;SDS011;69901;43.524;-5.636;2023-05-03T16:51:27;7.63;;;2.60;;
80557;SDS011;69901;43.524;-5.636;2023-05-03T16:53:53;7.23;;;2.70;;
80557;SDS011;69901;43.524;-5.636;2023-05-03T16:56:19;6.73;;;2.27;;
80557;SDS011;69901;43.524;-5.636;2023-05-03T16:58:45;7.35;;;2.90;;
80557;SDS011;69901;43.524;-5.636;2023-05-03T17:01:11;7.00;;;2.37;;
80557;SDS011;69901;43.524;-5.636;2023-05-03T17:03:37;7.17;;;2.80;;
80557;SDS011;69901;43.524;-5.636;2023-05-03T17:06:02;7.28;;;2.75;;
80557;SDS011;69901;43.524;-5.636;2023-05-03T17:08:28;7.23;;;2.23;;
80557;SDS011;69901;43.524;-5.636;2023-05-03T17:10:54;7.22;;;2.40;;
80557;SDS011;69901;43.524;-5.636;2023-05-03T17:13:21;7.90;;;2.73;;
80557;SDS011;69901;43.524;-5.636;2023-05-03T17:15:46;7.53;;;2.83;;
80557;SDS011;69901;43.524;-5.636;2023-05-03T17:18:12;7.70;;;2.73;;
80557;SDS011;69901;43.524;-5.636;2023-05-03T17:20:37;6.90;;;2.27;;
80557;SDS011;69901;43.524;-5.636;2023-05-03T17:23:03;7.95;;;2.72;;
80557;SDS011;69901;43.524;-5.636;2023-05-03T17:25:29;6.87;;;2.50;;
80557;SDS011;69901;43.524;-5.636;2023-05-03T17:27:54;9.27;;;2.67;;
80557;SDS011;69901;43.524;-5.636;2023-05-03T17:30:20;7.37;;;2.53;;
80557;SDS011;69901;43.524;-5.636;2023-05-03T17:32:46;6.95;;;2.63;;
80557;SDS011;69901;43.524;-5.636;2023-05-03T17:35:11;7.37;;;2.00;;
80557;SDS011;69901;43.524;-5.636;2023-05-03T17:37:37;8.13;;;2.50;;
80557;SDS011;69901;43.524;-5.636;2023-05-03T17:40:03;5.93;;;2.03;;
80557;SDS011;69901;43.524;-5.636;2023-05-03T17:42:30;8.15;;;2.20;;
80557;SDS011;69901;43.524;-5.636;2023-05-03T17:44:57;8.40;;;2.47;;
80557;SDS011;69901;43.524;-5.636;2023-05-03T17:47:23;7.40;;;2.83;;
80557;SDS011;69901;43.524;-5.636;2023-05-03T17:49:49;7.60;;;2.30;;
80557;SDS011;69901;43.524;-5.636;2023-05-03T17:52:15;8.10;;;2.60;;
80557;SDS011;69901;43.524;-5.636;2023-05-03T17:54:41;7.70;;;2.93;;
80557;SDS011;69901;43.524;-5.636;2023-05-03T17:57:07;7.20;;;2.33;;
80557;SDS011;69901;43.524;-5.636;2023-05-03T17:59:33;6.30;;;2.30;;
80557;SDS011;69901;43.524;-5.636;2023-05-03T18:01:59;7.17;;;2.93;;
80557;SDS011;69901;43.524;-5.636;2023-05-03T18:04:24;6.53;;;2.10;;
80557;SDS011;69901;43.524;-5.636;2023-05-03T18:06:51;8.13;;;2.17;;
80557;SDS011;69901;43.524;-5.636;2023-05-03T18:09:17;6.70;;;2.10;;
80557;SDS011;69901;43.524;-5.636;2023-05-03T18:11:43;7.78;;;2.58;;
80557;SDS011;69901;43.524;-5.636;2023-05-03T18:14:10;8.02;;;2.95;;
80557;SDS011;69901;43.524;-5.636;2023-05-03T18:16:36;8.23;;;2.40;;
80557;SDS011;69901;43.524;-5.636;2023-05-03T18:19:01;8.07;;;2.50;;
80557;SDS011;69901;43.524;-5.636;2023-05-03T18:21:28;6.55;;;2.35;;
80557;SDS011;69901;43.524;-5.636;2023-05-03T18:23:54;7.63;;;2.50;;
80557;SDS011;69901;43.524;-5.636;2023-05-03T18:26:20;6.03;;;2.17;;
80557;SDS011;69901;43.524;-5.636;2023-05-03T18:28:46;7.38;;;2.60;;
80557;SDS011;69901;43.524;-5.636;2023-05-03T18:31:11;8.80;;;2.67;;
80557;SDS011;69901;43.524;-5.636;2023-05-03T18:33:37;7.40;;;2.50;;
80557;SDS011;69901;43.524;-5.636;2023-05-03T18:36:04;6.57;;;1.93;;
80557;SDS011;69901;43.524;-5.636;2023-05-03T18:38:35;6.78;;;2.42;;
80557;SDS011;69901;43.524;-5.636;2023-05-03T18:41:07;7.85;;;2.40;;
80557;SDS011;69901;43.524;-5.636;2023-05-03T18:43:41;7.78;;;2.58;;
80557;SDS011;69901;43.524;-5.636;2023-05-03T18:46:07;7.45;;;2.92;;
80557;SDS011;69901;43.524;-5.636;2023-05-03T18:48:34;7.17;;;2.07;;
80557;SDS011;69901;43.524;-5.636;2023-05-03T18:50:59;6.32;;;2.20;;
80557;SDS011;69901;43.524;-5.636;2023-05-03T18:53:32;7.45;;;2.20;;
80557;SDS011;69901;43.524;-5.636;2023-05-03T18:55:59;7.28;;;2.00;;
80557;SDS011;69901;43.524;-5.636;2023-05-03T18:58:26;6.93;;;2.40;;
80557;SDS011;69901;43.524;-5.636;2023-05-03T19:00:53;6.82;;;2.13;;
80557;SDS011;69901;43.524;-5.636;2023-05-03T19:03:19;7.03;;;2.55;;
80557;SDS011;69901;43.524;-5.636;2023-05-03T19:05:45;6.17;;;2.03;;
80557;SDS011;69901;43.524;-5.636;2023-05-03T19:08:10;7.50;;;2.60;;
80557;SDS011;69901;43.524;-5.636;2023-05-03T19:10:36;6.97;;;2.35;;
80557;SDS011;69901;43.524;-5.636;2023-05-03T19:13:01;6.87;;;2.57;;
80557;SDS011;69901;43.524;-5.636;2023-05-03T19:15:27;6.57;;;2.70;;
80557;SDS011;69901;43.524;-5.636;2023-05-03T19:17:52;7.03;;;2.33;;
80557;SDS011;69901;43.524;-5.636;2023-05-03T19:20:18;6.80;;;2.40;;
80557;SDS011;69901;43.524;-5.636;2023-05-03T19:22:43;8.35;;;2.42;;
80557;SDS011;69901;43.524;-5.636;2023-05-03T19:25:10;7.77;;;2.63;;
80557;SDS011;69901;43.524;-5.636;2023-05-03T19:27:35;7.55;;;2.63;;
80557;SDS011;69901;43.524;-5.636;2023-05-03T19:30:01;6.50;;;2.03;;
80557;SDS011;69901;43.524;-5.636;2023-05-03T19:32:26;7.37;;;2.30;;
80557;SDS011;69901;43.524;-5.636;2023-05-03T19:34:52;5.85;;;2.22;;
80557;SDS011;69901;43.524;-5.636;2023-05-03T19:37:17;7.33;;;2.50;;
80557;SDS011;69901;43.524;-5.636;2023-05-03T19:39:43;8.90;;;2.60;;
80557;SDS011;69901;43.524;-5.636;2023-05-03T19:42:08;6.50;;;2.33;;
80557;SDS011;69901;43.524;-5.636;2023-05-03T19:44:33;5.75;;;1.77;;
80557;SDS011;69901;43.524;-5.636;2023-05-03T19:46:59;7.80;;;2.60;;
80557;SDS011;69901;43.524;-5.636;2023-05-03T19:49:25;6.82;;;2.80;;
80557;SDS011;69901;43.524;-5.636;2023-05-03T19:51:51;6.87;;;2.50;;
80557;SDS011;69901;43.524;-5.636;2023-05-03T19:54:20;8.27;;;2.75;;
80557;SDS011;69901;43.524;-5.636;2023-05-03T19:56:46;6.53;;;2.53;;
80557;SDS011;69901;43.524;-5.636;2023-05-03T19:59:11;8.95;;;2.67;;
80557;SDS011;69901;43.524;-5.636;2023-05-03T20:01:37;6.60;;;2.10;;
80557;SDS011;69901;43.524;-5.636;2023-05-03T20:04:02;7.47;;;2.13;;
80557;SDS011;69901;43.524;-5.636;2023-05-03T20:06:28;6.53;;;2.20;;
80557;SDS011;69901;43.524;-5.636;2023-05-03T20:08:53;6.53;;;2.47;;
80557;SDS011;69901;43.524;-5.636;2023-05-03T20:11:18;6.43;;;2.13;;
80557;SDS011;69901;43.524;-5.636;2023-05-03T20:13:45;6.55;;;2.38;;
80557;SDS011;69901;43.524;-5.636;2023-05-03T20:16:10;6.43;;;2.40;;
80557;SDS011;69901;43.524;-5.636;2023-05-03T20:18:37;6.33;;;2.17;;
80557;SDS011;69901;43.524;-5.636;2023-05-03T20:21:02;6.32;;;2.30;;
80557;SDS011;69901;43.524;-5.636;2023-05-03T20:23:28;6.47;;;2.53;;
80557;SDS011;69901;43.524;-5.636;2023-05-03T20:25:53;6.90;;;2.80;;
80557;SDS011;69901;43.524;-5.636;2023-05-03T20:28:19;6.85;;;2.63;;
80557;SDS011;69901;43.524;-5.636;2023-05-03T20:30:44;7.07;;;2.20;;
80557;SDS011;69901;43.524;-5.636;2023-05-03T20:33:10;7.03;;;2.08;;
80557;SDS011;69901;43.524;-5.636;2023-05-03T20:35:36;7.80;;;2.53;;
80557;SDS011;69901;43.524;-5.636;2023-05-03T20:38:02;6.97;;;2.45;;
80557;SDS011;69901;43.524;-5.636;2023-05-03T20:40:29;6.90;;;2.33;;
80557;SDS011;69901;43.524;-5.636;2023-05-03T20:42:56;6.82;;;2.50;;
80557;SDS011;69901;43.524;-5.636;2023-05-03T20:45:22;6.37;;;2.30;;
80557;SDS011;69901;43.524;-5.636;2023-05-03T20:47:47;6.93;;;2.40;;
80557;SDS011;69901;43.524;-5.636;2023-05-03T20:50:12;7.53;;;2.40;;
80557;SDS011;69901;43.524;-5.636;2023-05-03T20:52:38;6.67;;;2.17;;
80557;SDS011;69901;43.524;-5.636;2023-05-03T20:55:04;6.90;;;2.50;;
80557;SDS011;69901;43.524;-5.636;2023-05-03T20:57:29;6.47;;;2.22;;
80557;SDS011;69901;43.524;-5.636;2023-05-03T20:59:55;6.73;;;2.50;;
80557;SDS011;69901;43.524;-5.636;2023-05-03T21:02:20;5.75;;;2.17;;
80557;SDS011;69901;43.524;-5.636;2023-05-03T21:04:46;6.10;;;2.30;;
80557;SDS011;69901;43.524;-5.636;2023-05-03T21:07:11;6.33;;;2.50;;